sensor_id;sensor_type;location;lat;lon;timestamp;pressure;altitude;pressure_sealevel;temperature;humidity
21644;BME280;10983;51.982;9.226;2024-03-07T00:00:24;101119.97;;;1.71;100.00
21644;BME280;10983;51.982;9.226;2024-03-07T00:02:52;101121.13;;;1.42;100.00
21644;BME280;10983;51.982;9.226;2024-03-07T00:05:22;101117.09;;;1.48;100.00
21644;BME280;10983;51.982;9.226;2024-03-07T00:07:54;101115.81;;;1.34;100.00
21644;BME280;10983;51.982;9.226;2024-03-07T00:10:27;101107.69;;;1.28;100.00
21644;BME280;10983;51.982;9.226;2024-03-07T00:12:55;101109.16;;;1.40;100.00
21644;BME280;10983;51.982;9.226;2024-03-07T00:15:25;101097.53;;;1.25;100.00
21644;BME280;10983;51.982;9.226;2024-03-07T00:17:55;101099.84;;;1.28;100.00
21644;BME280;10983;51.982;9.226;2024-03-07T00:20:24;101088.25;;;1.30;100.00
21644;BME280;10983;51.982;9.226;2024-03-07T00:22:52;101094.75;;;1.26;100.00
21644;BME280;10983;51.982;9.226;2024-03-07T00:25:25;101037.53;;;0.87;100.00
21644;BME280;10983;51.982;9.226;2024-03-07T00:27:57;101078.94;;;1.18;100.00
21644;BME280;10983;51.982;9.226;2024-03-07T00:30:29;101069.03;;;1.39;100.00
21644;BME280;10983;51.982;9.226;2024-03-07T00:32:57;101068.88;;;1.41;100.00
21644;BME280;10983;51.982;9.226;2024-03-07T00:35:26;101058.16;;;1.34;100.00
21644;BME280;10983;51.982;9.226;2024-03-07T00:37:53;101053.25;;;1.31;100.00
21644;BME280;10983;51.982;9.226;2024-03-07T00:40:21;101024.84;;;1.10;100.00
21644;BME280;10983;51.982;9.226;2024-03-07T00:42:52;101039.75;;;1.26;100.00
21644;BME280;10983;51.982;9.226;2024-03-07T00:45:19;101035.69;;;1.14;100.00
21644;BME280;10983;51.982;9.226;2024-03-07T00:47:47;101036.19;;;1.01;100.00
21644;BME280;10983;51.982;9.226;2024-03-07T00:50:16;101022.88;;;0.94;100.00
21644;BME280;10983;51.982;9.226;2024-03-07T00:52:45;101020.69;;;0.90;100.00
21644;BME280;10983;51.982;9.226;2024-03-07T00:55:14;101018.00;;;0.82;100.00
21644;BME280;10983;51.982;9.226;2024-03-07T00:57:44;101016.19;;;0.82;100.00
21644;BME280;10983;51.982;9.226;2024-03-07T01:00:14;101008.47;;;0.81;100.00
21644;BME280;10983;51.982;9.226;2024-03-07T01:02:46;101001.75;;;0.78;100.00
21644;BME280;10983;51.982;9.226;2024-03-07T01:05:14;101000.31;;;0.84;100.00
21644;BME280;10983;51.982;9.226;2024-03-07T01:07:41;100984.63;;;0.84;100.00
21644;BME280;10983;51.982;9.226;2024-03-07T01:10:15;100983.38;;;0.88;100.00
21644;BME280;10983;51.982;9.226;2024-03-07T01:12:47;100980.59;;;0.89;100.00
21644;BME280;10983;51.982;9.226;2024-03-07T01:15:17;100981.53;;;0.98;100.00
21644;BME280;10983;51.982;9.226;2024-03-07T01:17:46;100973.50;;;0.82;100.00
21644;BME280;10983;51.982;9.226;2024-03-07T01:20:14;100984.44;;;0.68;100.00
21644;BME280;10983;51.982;9.226;2024-03-07T01:22:44;100969.63;;;0.59;100.00
21644;BME280;10983;51.982;9.226;2024-03-07T01:25:13;100974.88;;;0.59;100.00
21644;BME280;10983;51.982;9.226;2024-03-07T01:27:42;100972.09;;;0.60;100.00
21644;BME280;10983;51.982;9.226;2024-03-07T01:30:11;100963.25;;;0.44;100.00
21644;BME280;10983;51.982;9.226;2024-03-07T01:32:39;100969.94;;;0.47;100.00
21644;BME280;10983;51.982;9.226;2024-03-07T01:35:07;100956.91;;;0.37;100.00
21644;BME280;10983;51.982;9.226;2024-03-07T01:37:36;100962.94;;;0.47;100.00
21644;BME280;10983;51.982;9.226;2024-03-07T01:40:06;100957.75;;;0.38;100.00
21644;BME280;10983;51.982;9.226;2024-03-07T01:42:36;100954.53;;;0.44;100.00
21644;BME280;10983;51.982;9.226;2024-03-07T01:45:10;100951.13;;;0.43;100.00
21644;BME280;10983;51.982;9.226;2024-03-07T01:47:39;100951.56;;;0.39;100.00
21644;BME280;10983;51.982;9.226;2024-03-07T01:50:10;100946.03;;;0.42;100.00
21644;BME280;10983;51.982;9.226;2024-03-07T01:52:49;100947.41;;;0.46;100.00
21644;BME280;10983;51.982;9.226;2024-03-07T01:55:18;100957.75;;;0.38;100.00
21644;BME280;10983;51.982;9.226;2024-03-07T01:57:49;100942.16;;;0.19;100.00
21644;BME280;10983;51.982;9.226;2024-03-07T02:00:17;100951.88;;;0.26;100.00
21644;BME280;10983;51.982;9.226;2024-03-07T02:02:45;100941.56;;;0.25;100.00
21644;BME280;10983;51.982;9.226;2024-03-07T02:05:13;100957.81;;;0.28;100.00
21644;BME280;10983;51.982;9.226;2024-03-07T02:07:42;100944.66;;;0.11;100.00
21644;BME280;10983;51.982;9.226;2024-03-07T02:10:10;100947.69;;;0.06;100.00
21644;BME280;10983;51.982;9.226;2024-03-07T02:12:39;100948.63;;;0.15;100.00
21644;BME280;10983;51.982;9.226;2024-03-07T02:15:09;100938.88;;;0.07;100.00
21644;BME280;10983;51.982;9.226;2024-03-07T02:17:36;100944.66;;;0.11;100.00
21644;BME280;10983;51.982;9.226;2024-03-07T02:20:05;100942.31;;;0.08;100.00
21644;BME280;10983;51.982;9.226;2024-03-07T02:22:37;100949.16;;;0.18;100.00
21644;BME280;10983;51.982;9.226;2024-03-07T02:25:05;100930.47;;;0.13;100.00
21644;BME280;10983;51.982;9.226;2024-03-07T02:27:33;100945.63;;;0.10;100.00
21644;BME280;10983;51.982;9.226;2024-03-07T02:30:01;100942.13;;;-0.08;100.00
21644;BME280;10983;51.982;9.226;2024-03-07T02:32:34;100931.00;;;-0.19;100.00
21644;BME280;10983;51.982;9.226;2024-03-07T02:35:04;100935.63;;;-0.13;100.00
21644;BME280;10983;51.982;9.226;2024-03-07T02:37:31;100926.47;;;-0.27;100.00
21644;BME280;10983;51.982;9.226;2024-03-07T02:39:59;100934.56;;;-0.20;100.00
21644;BME280;10983;51.982;9.226;2024-03-07T02:42:29;100923.31;;;-0.30;100.00
21644;BME280;10983;51.982;9.226;2024-03-07T02:44:56;100924.41;;;-0.23;100.00
21644;BME280;10983;51.982;9.226;2024-03-07T02:47:24;100919.34;;;-0.34;100.00
21644;BME280;10983;51.982;9.226;2024-03-07T02:49:52;100921.00;;;-0.52;100.00
21644;BME280;10983;51.982;9.226;2024-03-07T02:52:19;100909.78;;;-0.62;100.00
21644;BME280;10983;51.982;9.226;2024-03-07T02:54:47;100924.63;;;-0.62;100.00
21644;BME280;10983;51.982;9.226;2024-03-07T02:57:15;100910.72;;;-0.54;100.00
21644;BME280;10983;51.982;9.226;2024-03-07T02:59:43;100918.25;;;-0.41;100.00
21644;BME280;10983;51.982;9.226;2024-03-07T03:02:10;100911.34;;;-0.23;100.00
21644;BME280;10983;51.982;9.226;2024-03-07T03:04:40;100904.44;;;-0.24;100.00
21644;BME280;10983;51.982;9.226;2024-03-07T03:07:08;100899.88;;;-0.49;100.00
21644;BME280;10983;51.982;9.226;2024-03-07T03:09:36;100913.19;;;-0.52;100.00
21644;BME280;10983;51.982;9.226;2024-03-07T03:12:06;100901.09;;;-0.53;100.00
21644;BME280;10983;51.982;9.226;2024-03-07T03:14:36;100909.22;;;-0.47;100.00
21644;BME280;10983;51.982;9.226;2024-03-07T03:17:04;100908.22;;;-0.46;100.00
21644;BME280;10983;51.982;9.226;2024-03-07T03:19:35;100905.91;;;-0.49;100.00
21644;BME280;10983;51.982;9.226;2024-03-07T03:22:03;100900.38;;;-0.36;100.00
21644;BME280;10983;51.982;9.226;2024-03-07T03:24:30;100900.44;;;-0.19;100.00
21644;BME280;10983;51.982;9.226;2024-03-07T03:26:58;100902.06;;;-0.08;100.00
21644;BME280;10983;51.982;9.226;2024-03-07T03:29:25;100904.53;;;-0.07;100.00
21644;BME280;10983;51.982;9.226;2024-03-07T03:31:56;100899.97;;;0.04;100.00
21644;BME280;10983;51.982;9.226;2024-03-07T03:34:23;100899.13;;;0.13;100.00
21644;BME280;10983;51.982;9.226;2024-03-07T03:36:52;100907.19;;;0.20;100.00
21644;BME280;10983;51.982;9.226;2024-03-07T03:39:20;100908.31;;;0.44;100.00
21644;BME280;10983;51.982;9.226;2024-03-07T03:41:47;100889.84;;;0.46;100.00
21644;BME280;10983;51.982;9.226;2024-03-07T03:44:15;100901.22;;;0.54;100.00
21644;BME280;10983;51.982;9.226;2024-03-07T03:46:43;100905.72;;;0.61;100.00
21644;BME280;10983;51.982;9.226;2024-03-07T03:49:14;100911.94;;;0.60;100.00
21644;BME280;10983;51.982;9.226;2024-03-07T03:51:42;100906.63;;;0.70;100.00
21644;BME280;10983;51.982;9.226;2024-03-07T03:54:13;100910.75;;;0.72;100.00
21644;BME280;10983;51.982;9.226;2024-03-07T03:56:41;100913.16;;;0.83;100.00
21644;BME280;10983;51.982;9.226;2024-03-07T03:59:09;100912.41;;;0.91;100.00
21644;BME280;10983;51.982;9.226;2024-03-07T04:01:36;100905.53;;;1.07;100.00
21644;BME280;10983;51.982;9.226;2024-03-07T04:04:04;100906.50;;;1.23;100.00
21644;BME280;10983;51.982;9.226;2024-03-07T04:06:33;100903.47;;;1.36;100.00
21644;BME280;10983;51.982;9.226;2024-03-07T04:09:00;100903.31;;;1.55;100.00
21644;BME280;10983;51.982;9.226;2024-03-07T04:11:27;100896.31;;;1.63;100.00
21644;BME280;10983;51.982;9.226;2024-03-07T04:13:55;100893.22;;;1.67;100.00
21644;BME280;10983;51.982;9.226;2024-03-07T04:16:23;100903.31;;;1.80;100.00
21644;BME280;10983;51.982;9.226;2024-03-07T04:18:50;100907.47;;;1.90;100.00
21644;BME280;10983;51.982;9.226;2024-03-07T04:21:18;100915.22;;;2.00;100.00
21644;BME280;10983;51.982;9.226;2024-03-07T04:23:47;100914.81;;;2.12;100.00
21644;BME280;10983;51.982;9.226;2024-03-07T04:26:15;100916.44;;;2.13;100.00
21644;BME280;10983;51.982;9.226;2024-03-07T04:28:42;100904.81;;;2.16;100.00
21644;BME280;10983;51.982;9.226;2024-03-07T04:31:10;100913.34;;;2.18;100.00
21644;BME280;10983;51.982;9.226;2024-03-07T04:33:37;100905.66;;;2.16;100.00
21644;BME280;10983;51.982;9.226;2024-03-07T04:36:06;100902.06;;;2.25;100.00
21644;BME280;10983;51.982;9.226;2024-03-07T04:38:35;100904.69;;;2.25;100.00
21644;BME280;10983;51.982;9.226;2024-03-07T04:41:05;100903.59;;;2.35;100.00
21644;BME280;10983;51.982;9.226;2024-03-07T04:43:34;100898.69;;;2.40;100.00
21644;BME280;10983;51.982;9.226;2024-03-07T04:46:01;100899.56;;;2.57;100.00
21644;BME280;10983;51.982;9.226;2024-03-07T04:48:29;100900.56;;;2.64;100.00
21644;BME280;10983;51.982;9.226;2024-03-07T04:50:59;100905.69;;;2.65;100.00
21644;BME280;10983;51.982;9.226;2024-03-07T04:53:27;100897.66;;;2.67;100.00
21644;BME280;10983;51.982;9.226;2024-03-07T04:55:54;100912.13;;;2.78;100.00
21644;BME280;10983;51.982;9.226;2024-03-07T04:58:23;100917.50;;;2.77;100.00
21644;BME280;10983;51.982;9.226;2024-03-07T05:00:51;100922.09;;;2.75;100.00
21644;BME280;10983;51.982;9.226;2024-03-07T05:03:18;100917.50;;;2.77;100.00
21644;BME280;10983;51.982;9.226;2024-03-07T05:05:46;100915.19;;;2.74;100.00
21644;BME280;10983;51.982;9.226;2024-03-07T05:08:13;100907.50;;;2.73;100.00
21644;BME280;10983;51.982;9.226;2024-03-07T05:10:43;100919.47;;;2.67;100.00
21644;BME280;10983;51.982;9.226;2024-03-07T05:13:10;100912.88;;;2.63;100.00
21644;BME280;10983;51.982;9.226;2024-03-07T05:15:39;100910.09;;;2.65;100.00
21644;BME280;10983;51.982;9.226;2024-03-07T05:18:07;100914.72;;;2.71;100.00
21644;BME280;10983;51.982;9.226;2024-03-07T05:20:34;100910.31;;;2.79;100.00
21644;BME280;10983;51.982;9.226;2024-03-07T05:23:04;100905.38;;;2.76;100.00
21644;BME280;10983;51.982;9.226;2024-03-07T05:25:32;100903.72;;;2.75;100.00
21644;BME280;10983;51.982;9.226;2024-03-07T05:27:59;100910.66;;;2.84;100.00
21644;BME280;10983;51.982;9.226;2024-03-07T05:30:29;100911.13;;;2.87;100.00
21644;BME280;10983;51.982;9.226;2024-03-07T05:32:57;100914.44;;;2.89;100.00
21644;BME280;10983;51.982;9.226;2024-03-07T05:35:28;100911.94;;;2.80;100.00
21644;BME280;10983;51.982;9.226;2024-03-07T05:37:56;100915.56;;;2.79;100.00
21644;BME280;10983;51.982;9.226;2024-03-07T05:40:25;100918.97;;;2.72;100.00
21644;BME280;10983;51.982;9.226;2024-03-07T05:42:53;100920.63;;;2.80;100.00
21644;BME280;10983;51.982;9.226;2024-03-07T05:45:21;100923.09;;;2.82;100.00
21644;BME280;10983;51.982;9.226;2024-03-07T05:47:50;100927.22;;;2.84;100.00
21644;BME280;10983;51.982;9.226;2024-03-07T05:50:19;100916.22;;;2.89;100.00
21644;BME280;10983;51.982;9.226;2024-03-07T05:52:46;100919.53;;;2.99;100.00
21644;BME280;10983;51.982;9.226;2024-03-07T05:55:16;100920.16;;;2.93;100.00
21644;BME280;10983;51.982;9.226;2024-03-07T05:57:46;100920.31;;;2.83;100.00
21644;BME280;10983;51.982;9.226;2024-03-07T06:00:14;100923.63;;;2.93;100.00
21644;BME280;10983;51.982;9.226;2024-03-07T06:02:42;100922.50;;;2.96;100.00
21644;BME280;10983;51.982;9.226;2024-03-07T06:05:10;100922.81;;;3.09;100.00
21644;BME280;10983;51.982;9.226;2024-03-07T06:07:43;100913.81;;;3.11;100.00
21644;BME280;10983;51.982;9.226;2024-03-07T06:10:12;100921.06;;;3.33;100.00
21644;BME280;10983;51.982;9.226;2024-03-07T06:12:41;100919.09;;;3.43;100.00
21644;BME280;10983;51.982;9.226;2024-03-07T06:15:30;100924.97;;;3.53;100.00
21644;BME280;10983;51.982;9.226;2024-03-07T06:17:57;100926.63;;;3.54;100.00
21644;BME280;10983;51.982;9.226;2024-03-07T06:20:26;100932.22;;;3.67;100.00
21644;BME280;10983;51.982;9.226;2024-03-07T06:22:55;100938.97;;;3.69;100.00
21644;BME280;10983;51.982;9.226;2024-03-07T06:25:23;100943.22;;;3.70;100.00
21644;BME280;10983;51.982;9.226;2024-03-07T06:28:00;100949.59;;;3.84;100.00
21644;BME280;10983;51.982;9.226;2024-03-07T06:30:35;100956.69;;;3.91;100.00
21644;BME280;10983;51.982;9.226;2024-03-07T06:33:04;100957.81;;;3.96;100.00
21644;BME280;10983;51.982;9.226;2024-03-07T06:35:32;100939.94;;;3.84;100.00
21644;BME280;10983;51.982;9.226;2024-03-07T06:38:05;100958.47;;;4.06;100.00
21644;BME280;10983;51.982;9.226;2024-03-07T06:40:36;100947.94;;;4.06;100.00
21644;BME280;10983;51.982;9.226;2024-03-07T06:43:04;100974.88;;;4.16;100.00
21644;BME280;10983;51.982;9.226;2024-03-07T06:45:33;100961.88;;;4.23;100.00
21644;BME280;10983;51.982;9.226;2024-03-07T06:48:01;100975.19;;;4.37;100.00
21644;BME280;10983;51.982;9.226;2024-03-07T06:50:29;100984.38;;;4.41;100.00
21644;BME280;10983;51.982;9.226;2024-03-07T06:53:05;100977.25;;;4.49;100.00
21644;BME280;10983;51.982;9.226;2024-03-07T06:55:35;100986.31;;;4.47;100.00
21644;BME280;10983;51.982;9.226;2024-03-07T06:58:02;100988.13;;;4.54;100.00
21644;BME280;10983;51.982;9.226;2024-03-07T07:00:31;100989.91;;;4.54;100.00
21644;BME280;10983;51.982;9.226;2024-03-07T07:03:04;100997.53;;;4.49;100.00
21644;BME280;10983;51.982;9.226;2024-03-07T07:05:32;100994.69;;;4.58;100.00
21644;BME280;10983;51.982;9.226;2024-03-07T07:08:00;101002.28;;;4.53;100.00
21644;BME280;10983;51.982;9.226;2024-03-07T07:10:29;101008.69;;;4.51;100.00
21644;BME280;10983;51.982;9.226;2024-03-07T07:12:57;101014.28;;;4.56;100.00
21644;BME280;10983;51.982;9.226;2024-03-07T07:15:24;101004.56;;;4.48;100.00
21644;BME280;10983;51.982;9.226;2024-03-07T07:17:52;101023.69;;;4.50;100.00
21644;BME280;10983;51.982;9.226;2024-03-07T07:20:19;101031.59;;;4.50;100.00
21644;BME280;10983;51.982;9.226;2024-03-07T07:22:47;101036.16;;;4.56;100.00
21644;BME280;10983;51.982;9.226;2024-03-07T07:25:15;101042.13;;;4.89;100.00
21644;BME280;10983;51.982;9.226;2024-03-07T07:27:45;101049.16;;;5.04;100.00
21644;BME280;10983;51.982;9.226;2024-03-07T07:30:14;101051.22;;;5.24;100.00
21644;BME280;10983;51.982;9.226;2024-03-07T07:32:43;101061.19;;;5.37;100.00
21644;BME280;10983;51.982;9.226;2024-03-07T07:35:12;101037.00;;;5.33;100.00
21644;BME280;10983;51.982;9.226;2024-03-07T07:37:40;101065.63;;;5.66;100.00
21644;BME280;10983;51.982;9.226;2024-03-07T07:40:09;101056.00;;;5.81;100.00
21644;BME280;10983;51.982;9.226;2024-03-07T07:42:40;101063.91;;;5.81;100.00
21644;BME280;10983;51.982;9.226;2024-03-07T07:45:11;101061.22;;;5.89;100.00
21644;BME280;10983;51.982;9.226;2024-03-07T07:47:45;101074.34;;;5.97;100.00
21644;BME280;10983;51.982;9.226;2024-03-07T07:50:16;101071.34;;;6.00;100.00
21644;BME280;10983;51.982;9.226;2024-03-07T07:52:45;101084.31;;;6.10;100.00
21644;BME280;10983;51.982;9.226;2024-03-07T07:55:15;101078.41;;;6.22;100.00
21644;BME280;10983;51.982;9.226;2024-03-07T07:57:44;101076.91;;;6.27;100.00
21644;BME280;10983;51.982;9.226;2024-03-07T08:00:15;101067.63;;;6.31;100.00
21644;BME280;10983;51.982;9.226;2024-03-07T08:02:51;101078.22;;;6.60;100.00
21644;BME280;10983;51.982;9.226;2024-03-07T08:05:20;101088.97;;;6.59;100.00
21644;BME280;10983;51.982;9.226;2024-03-07T08:07:52;101101.22;;;6.88;100.00
21644;BME280;10983;51.982;9.226;2024-03-07T08:10:21;101107.13;;;6.76;100.00
21644;BME280;10983;51.982;9.226;2024-03-07T08:12:50;101109.88;;;6.82;100.00
21644;BME280;10983;51.982;9.226;2024-03-07T08:15:19;101115.44;;;6.73;100.00
21644;BME280;10983;51.982;9.226;2024-03-07T08:17:49;101108.97;;;6.90;100.00
21644;BME280;10983;51.982;9.226;2024-03-07T08:20:19;101112.78;;;7.02;100.00
21644;BME280;10983;51.982;9.226;2024-03-07T08:22:50;101118.09;;;7.16;100.00
21644;BME280;10983;51.982;9.226;2024-03-07T08:25:20;101124.56;;;7.28;100.00
21644;BME280;10983;51.982;9.226;2024-03-07T08:27:50;101131.41;;;7.37;100.00
21644;BME280;10983;51.982;9.226;2024-03-07T08:30:21;101130.03;;;7.12;100.00
21644;BME280;10983;51.982;9.226;2024-03-07T08:32:53;101132.47;;;7.57;100.00
21644;BME280;10983;51.982;9.226;2024-03-07T08:35:22;101145.03;;;7.69;100.00
21644;BME280;10983;51.982;9.226;2024-03-07T08:37:51;101151.19;;;7.90;100.00
21644;BME280;10983;51.982;9.226;2024-03-07T08:40:22;101161.75;;;8.05;100.00
21644;BME280;10983;51.982;9.226;2024-03-07T08:42:54;101166.59;;;8.01;100.00
21644;BME280;10983;51.982;9.226;2024-03-07T08:45:26;101173.28;;;7.83;100.00
21644;BME280;10983;51.982;9.226;2024-03-07T08:47:56;101164.75;;;7.67;100.00
21644;BME280;10983;51.982;9.226;2024-03-07T08:50:26;101173.66;;;7.80;100.00
21644;BME280;10983;51.982;9.226;2024-03-07T08:52:56;101169.84;;;7.82;100.00
21644;BME280;10983;51.982;9.226;2024-03-07T08:55:25;101174.25;;;7.96;100.00
21644;BME280;10983;51.982;9.226;2024-03-07T08:57:53;101178.06;;;8.23;100.00
21644;BME280;10983;51.982;9.226;2024-03-07T09:00:21;101178.63;;;8.18;100.00
21644;BME280;10983;51.982;9.226;2024-03-07T09:02:54;101176.44;;;8.07;100.00
21644;BME280;10983;51.982;9.226;2024-03-07T09:05:26;101186.38;;;8.05;100.00
21644;BME280;10983;51.982;9.226;2024-03-07T09:08:01;101175.69;;;7.78;100.00
21644;BME280;10983;51.982;9.226;2024-03-07T09:10:35;101168.75;;;7.77;100.00
21644;BME280;10983;51.982;9.226;2024-03-07T09:13:03;101114.69;;;7.36;100.00
21644;BME280;10983;51.982;9.226;2024-03-07T09:15:35;101200.44;;;7.56;100.00
21644;BME280;10983;51.982;9.226;2024-03-07T09:18:08;101184.38;;;7.58;100.00
21644;BME280;10983;51.982;9.226;2024-03-07T09:20:36;101188.38;;;7.54;100.00
21644;BME280;10983;51.982;9.226;2024-03-07T09:23:04;101187.66;;;7.60;100.00
21644;BME280;10983;51.982;9.226;2024-03-07T09:25:32;101191.78;;;7.62;100.00
21644;BME280;10983;51.982;9.226;2024-03-07T09:28:00;101182.38;;;7.60;100.00
21644;BME280;10983;51.982;9.226;2024-03-07T09:30:34;101177.19;;;7.52;100.00
21644;BME280;10983;51.982;9.226;2024-03-07T09:33:07;101187.50;;;7.61;100.00
21644;BME280;10983;51.982;9.226;2024-03-07T09:35:38;101167.06;;;7.55;100.00
21644;BME280;10983;51.982;9.226;2024-03-07T09:38:07;101132.88;;;7.25;100.00
21644;BME280;10983;51.982;9.226;2024-03-07T09:40:37;101190.50;;;7.73;100.00
21644;BME280;10983;51.982;9.226;2024-03-07T09:43:09;101129.66;;;7.44;100.00
21644;BME280;10983;51.982;9.226;2024-03-07T09:45:42;101179.44;;;7.83;100.00
21644;BME280;10983;51.982;9.226;2024-03-07T09:48:15;101186.22;;;7.92;100.00
21644;BME280;10983;51.982;9.226;2024-03-07T09:50:46;101181.59;;;7.80;100.00
21644;BME280;10983;51.982;9.226;2024-03-07T09:53:19;101171.59;;;7.76;100.00
21644;BME280;10983;51.982;9.226;2024-03-07T09:55:48;101182.19;;;7.96;100.00
21644;BME280;10983;51.982;9.226;2024-03-07T09:58:18;101190.59;;;8.14;100.00
21644;BME280;10983;51.982;9.226;2024-03-07T10:00:47;101189.22;;;8.39;100.00
21644;BME280;10983;51.982;9.226;2024-03-07T10:03:21;101197.56;;;8.36;100.00
21644;BME280;10983;51.982;9.226;2024-03-07T10:05:50;101200.06;;;8.44;100.00
21644;BME280;10983;51.982;9.226;2024-03-07T10:08:27;101185.06;;;8.30;100.00
21644;BME280;10983;51.982;9.226;2024-03-07T10:10:57;101205.50;;;8.57;100.00
21644;BME280;10983;51.982;9.226;2024-03-07T10:13:26;101200.81;;;8.59;100.00
21644;BME280;10983;51.982;9.226;2024-03-07T10:15:56;101210.41;;;9.08;100.00
21644;BME280;10983;51.982;9.226;2024-03-07T10:18:30;101207.88;;;9.54;100.00
21644;BME280;10983;51.982;9.226;2024-03-07T10:21:00;101217.16;;;9.71;100.00
21644;BME280;10983;51.982;9.226;2024-03-07T10:23:30;101221.63;;;9.71;100.00
21644;BME280;10983;51.982;9.226;2024-03-07T10:26:04;101215.56;;;10.30;100.00
21644;BME280;10983;51.982;9.226;2024-03-07T10:28:37;101195.78;;;10.64;100.00
21644;BME280;10983;51.982;9.226;2024-03-07T10:31:08;101234.28;;;11.01;100.00
21644;BME280;10983;51.982;9.226;2024-03-07T10:33:42;101195.34;;;11.25;100.00
21644;BME280;10983;51.982;9.226;2024-03-07T10:36:09;101229.50;;;11.67;100.00
21644;BME280;10983;51.982;9.226;2024-03-07T10:38:40;101240.16;;;11.74;100.00
21644;BME280;10983;51.982;9.226;2024-03-07T10:41:10;101252.69;;;11.28;100.00
21644;BME280;10983;51.982;9.226;2024-03-07T10:43:40;101247.38;;;11.02;100.00
21644;BME280;10983;51.982;9.226;2024-03-07T10:46:12;101244.50;;;11.10;100.00
21644;BME280;10983;51.982;9.226;2024-03-07T10:48:42;101246.38;;;11.10;100.00
21644;BME280;10983;51.982;9.226;2024-03-07T10:51:25;101244.50;;;11.10;100.00
21644;BME280;10983;51.982;9.226;2024-03-07T10:54:04;101251.28;;;11.51;100.00
21644;BME280;10983;51.982;9.226;2024-03-07T10:56:47;101236.50;;;11.49;100.00
21644;BME280;10983;51.982;9.226;2024-03-07T10:59:26;101233.22;;;11.53;100.00
21644;BME280;10983;51.982;9.226;2024-03-07T11:01:59;101219.06;;;11.46;100.00
21644;BME280;10983;51.982;9.226;2024-03-07T11:04:38;101242.16;;;12.96;100.00
21644;BME280;10983;51.982;9.226;2024-03-07T11:07:08;101242.81;;;13.16;100.00
21644;BME280;10983;51.982;9.226;2024-03-07T11:09:37;101248.41;;;13.56;100.00
21644;BME280;10983;51.982;9.226;2024-03-07T11:12:08;101252.25;;;13.18;100.00
21644;BME280;10983;51.982;9.226;2024-03-07T11:14:39;101242.50;;;12.75;100.00
21644;BME280;10983;51.982;9.226;2024-03-07T11:17:08;101241.75;;;12.68;100.00
21644;BME280;10983;51.982;9.226;2024-03-07T11:19:41;101245.09;;;13.19;100.00
21644;BME280;10983;51.982;9.226;2024-03-07T11:22:08;101240.22;;;15.22;100.00
21644;BME280;10983;51.982;9.226;2024-03-07T11:24:42;101257.00;;;15.74;100.00
21644;BME280;10983;51.982;9.226;2024-03-07T11:27:11;101261.34;;;16.26;100.00
21644;BME280;10983;51.982;9.226;2024-03-07T11:29:47;101258.09;;;16.52;100.00
21644;BME280;10983;51.982;9.226;2024-03-07T11:32:20;101260.03;;;16.84;100.00
21644;BME280;10983;51.982;9.226;2024-03-07T11:34:53;101266.81;;;14.94;100.00
21644;BME280;10983;51.982;9.226;2024-03-07T11:37:37;101271.16;;;13.41;100.00
21644;BME280;10983;51.982;9.226;2024-03-07T11:40:08;101241.16;;;12.60;100.00
21644;BME280;10983;51.982;9.226;2024-03-07T11:42:46;101237.97;;;12.45;100.00
21644;BME280;10983;51.982;9.226;2024-03-07T11:45:16;101243.03;;;12.59;100.00
21644;BME280;10983;51.982;9.226;2024-03-07T11:47:54;101234.97;;;13.99;100.00
21644;BME280;10983;51.982;9.226;2024-03-07T11:50:29;101239.63;;;15.66;100.00
21644;BME280;10983;51.982;9.226;2024-03-07T11:53:03;101245.00;;;16.28;100.00
21644;BME280;10983;51.982;9.226;2024-03-07T11:55:33;101242.31;;;16.55;100.00
21644;BME280;10983;51.982;9.226;2024-03-07T11:58:11;101222.38;;;15.50;100.00
21644;BME280;10983;51.982;9.226;2024-03-07T12:00:40;101239.00;;;15.18;100.00
21644;BME280;10983;51.982;9.226;2024-03-07T12:03:20;101243.53;;;14.54;100.00
21644;BME280;10983;51.982;9.226;2024-03-07T12:05:51;101228.78;;;14.34;100.00
21644;BME280;10983;51.982;9.226;2024-03-07T12:08:19;101233.19;;;14.10;100.00
21644;BME280;10983;51.982;9.226;2024-03-07T12:10:49;101215.44;;;13.98;100.00
21644;BME280;10983;51.982;9.226;2024-03-07T12:13:20;101224.53;;;13.61;100.00
21644;BME280;10983;51.982;9.226;2024-03-07T12:15:49;101227.34;;;13.24;100.00
21644;BME280;10983;51.982;9.226;2024-03-07T12:18:19;101217.16;;;13.57;100.00
21644;BME280;10983;51.982;9.226;2024-03-07T12:20:51;101197.56;;;15.20;100.00
21644;BME280;10983;51.982;9.226;2024-03-07T12:23:22;101210.31;;;16.26;100.00
21644;BME280;10983;51.982;9.226;2024-03-07T12:25:59;101199.81;;;16.52;100.00
21644;BME280;10983;51.982;9.226;2024-03-07T12:28:29;101209.00;;;16.01;100.00
21644;BME280;10983;51.982;9.226;2024-03-07T12:30:59;101209.66;;;15.80;100.00
21644;BME280;10983;51.982;9.226;2024-03-07T12:33:30;101205.03;;;15.30;100.00
21644;BME280;10983;51.982;9.226;2024-03-07T12:36:08;101199.41;;;14.97;100.00
21644;BME280;10983;51.982;9.226;2024-03-07T12:38:37;101200.06;;;14.41;100.00
21644;BME280;10983;51.982;9.226;2024-03-07T12:41:08;101185.22;;;13.98;100.00
21644;BME280;10983;51.982;9.226;2024-03-07T12:43:43;101171.72;;;13.75;100.00
21644;BME280;10983;51.982;9.226;2024-03-07T12:46:17;101182.84;;;13.54;100.00
21644;BME280;10983;51.982;9.226;2024-03-07T12:48:45;101191.78;;;13.24;100.00
21644;BME280;10983;51.982;9.226;2024-03-07T12:51:21;101131.53;;;13.28;100.00
21644;BME280;10983;51.982;9.226;2024-03-07T12:53:49;101187.81;;;13.50;100.00
21644;BME280;10983;51.982;9.226;2024-03-07T12:56:18;101177.78;;;12.86;100.00
21644;BME280;10983;51.982;9.226;2024-03-07T12:58:47;101168.25;;;13.14;100.00
21644;BME280;10983;51.982;9.226;2024-03-07T13:01:17;101160.03;;;13.16;100.00